sensor_id;sensor_type;location;lat;lon;timestamp;pressure;altitude;pressure_sealevel;temperature;humidity
52105;BME280;38103;42.776;23.112;2022-10-24T00:01:21;94698.72;;;10.14;84.77
52105;BME280;38103;42.776;23.112;2022-10-24T00:03:47;94698.78;;;10.01;85.28
52105;BME280;38103;42.776;23.112;2022-10-24T00:06:13;94693.50;;;10.01;84.79
52105;BME280;38103;42.776;23.112;2022-10-24T00:08:40;94690.28;;;9.99;84.84
52105;BME280;38103;42.776;23.112;2022-10-24T00:11:11;94687.22;;;10.02;84.64
52105;BME280;38103;42.776;23.112;2022-10-24T00:13:37;94695.16;;;10.02;84.35
52105;BME280;38103;42.776;23.112;2022-10-24T00:16:03;94693.94;;;9.98;84.07
52105;BME280;38103;42.776;23.112;2022-10-24T00:18:28;94693.56;;;9.87;84.06
52105;BME280;38103;42.776;23.112;2022-10-24T00:20:53;94692.97;;;9.85;84.51
52105;BME280;38103;42.776;23.112;2022-10-24T00:23:19;94692.25;;;9.71;85.23
52105;BME280;38103;42.776;23.112;2022-10-24T00:25:44;94676.69;;;9.56;85.99
52105;BME280;38103;42.776;23.112;2022-10-24T00:28:10;94676.72;;;9.42;86.64
52105;BME280;38103;42.776;23.112;2022-10-24T00:30:35;94677.38;;;9.37;87.26
52105;BME280;38103;42.776;23.112;2022-10-24T00:33:00;94669.38;;;9.58;86.18
52105;BME280;38103;42.776;23.112;2022-10-24T00:35:26;94668.28;;;9.72;85.25
52105;BME280;38103;42.776;23.112;2022-10-24T00:37:52;94674.50;;;9.85;84.13
52105;BME280;38103;42.776;23.112;2022-10-24T00:40:18;94677.38;;;9.77;84.17
52105;BME280;38103;42.776;23.112;2022-10-24T00:42:45;94670.19;;;9.52;86.30
52105;BME280;38103;42.776;23.112;2022-10-24T00:45:36;94672.72;;;9.33;87.95
52105;BME280;38103;42.776;23.112;2022-10-24T00:48:10;94673.34;;;9.21;88.68
52105;BME280;38103;42.776;23.112;2022-10-24T00:50:37;94667.84;;;9.23;88.60
52105;BME280;38103;42.776;23.112;2022-10-24T00:53:02;94667.50;;;9.05;88.91
52105;BME280;38103;42.776;23.112;2022-10-24T00:55:28;94669.38;;;8.91;90.19
52105;BME280;38103;42.776;23.112;2022-10-24T00:57:55;94665.47;;;9.08;89.98
52105;BME280;38103;42.776;23.112;2022-10-24T01:00:28;94672.38;;;9.09;90.15
52105;BME280;38103;42.776;23.112;2022-10-24T01:02:55;94670.75;;;9.08;90.36
52105;BME280;38103;42.776;23.112;2022-10-24T01:05:22;94604.66;;;8.82;89.89
52105;BME280;38103;42.776;23.112;2022-10-24T01:08:23;94673.91;;;9.37;88.06
52105;BME280;38103;42.776;23.112;2022-10-24T01:13:44;94662.97;;;9.26;88.23
52105;BME280;38103;42.776;23.112;2022-10-24T01:16:18;94661.75;;;9.29;87.81
52105;BME280;38103;42.776;23.112;2022-10-24T01:18:49;94664.63;;;9.27;88.21
52105;BME280;38103;42.776;23.112;2022-10-24T01:24:02;94675.81;;;9.02;88.86
52105;BME280;38103;42.776;23.112;2022-10-24T01:32:15;94599.06;;;8.10;92.53
52105;BME280;38103;42.776;23.112;2022-10-24T01:34:47;94668.16;;;8.46;93.38
52105;BME280;38103;42.776;23.112;2022-10-24T01:37:20;94668.38;;;8.31;96.63
52105;BME280;38103;42.776;23.112;2022-10-24T01:39:49;94668.38;;;8.24;98.06
52105;BME280;38103;42.776;23.112;2022-10-24T01:42:19;94670.78;;;8.26;98.47
52105;BME280;38103;42.776;23.112;2022-10-24T01:44:49;94665.53;;;8.26;99.03
52105;BME280;38103;42.776;23.112;2022-10-24T01:47:25;94560.13;;;7.58;97.92
52105;BME280;38103;42.776;23.112;2022-10-24T01:49:55;94661.06;;;8.20;97.75
52105;BME280;38103;42.776;23.112;2022-10-24T01:52:24;94666.75;;;8.16;98.95
52105;BME280;38103;42.776;23.112;2022-10-24T01:54:52;94670.38;;;8.22;98.14
52105;BME280;38103;42.776;23.112;2022-10-24T01:57:18;94674.84;;;8.22;98.27
52105;BME280;38103;42.776;23.112;2022-10-24T01:59:46;94664.72;;;8.32;97.68
52105;BME280;38103;42.776;23.112;2022-10-24T02:02:41;94661.28;;;8.38;96.47
52105;BME280;38103;42.776;23.112;2022-10-24T02:05:14;94661.06;;;8.33;98.91
52105;BME280;38103;42.776;23.112;2022-10-24T02:07:42;94663.09;;;8.45;98.25
52105;BME280;38103;42.776;23.112;2022-10-24T02:10:16;94664.72;;;8.39;98.29
52105;BME280;38103;42.776;23.112;2022-10-24T02:12:47;94665.31;;;8.41;98.31
52105;BME280;38103;42.776;23.112;2022-10-24T02:15:20;94659.84;;;8.56;96.53
52105;BME280;38103;42.776;23.112;2022-10-24T02:17:48;94667.56;;;8.78;94.09
52105;BME280;38103;42.776;23.112;2022-10-24T02:20:13;94662.69;;;8.75;93.92
52105;BME280;38103;42.776;23.112;2022-10-24T02:22:58;94667.56;;;8.85;92.58
52105;BME280;38103;42.776;23.112;2022-10-24T02:25:34;94660.84;;;8.82;91.66
52105;BME280;38103;42.776;23.112;2022-10-24T02:28:10;94664.13;;;8.71;92.55
52105;BME280;38103;42.776;23.112;2022-10-24T02:30:50;94663.31;;;8.77;91.47
52105;BME280;38103;42.776;23.112;2022-10-24T02:33:17;94675.66;;;8.56;91.54
52105;BME280;38103;42.776;23.112;2022-10-24T02:35:44;94663.88;;;8.25;94.88
52105;BME280;38103;42.776;23.112;2022-10-24T02:38:19;94660.25;;;8.19;95.33
52105;BME280;38103;42.776;23.112;2022-10-24T02:40:47;94645.66;;;8.23;93.74
52105;BME280;38103;42.776;23.112;2022-10-24T02:43:15;94654.97;;;8.46;92.60
52105;BME280;38103;42.776;23.112;2022-10-24T02:45:43;94657.84;;;8.45;92.23
52105;BME280;38103;42.776;23.112;2022-10-24T02:48:11;94667.97;;;8.34;92.77
52105;BME280;38103;42.776;23.112;2022-10-24T02:50:39;94657.41;;;8.41;92.30
52105;BME280;38103;42.776;23.112;2022-10-24T02:53:08;94632.69;;;8.08;93.71
52105;BME280;38103;42.776;23.112;2022-10-24T02:55:34;94663.47;;;8.14;95.38
52105;BME280;38103;42.776;23.112;2022-10-24T02:57:59;94662.47;;;8.09;95.82
52105;BME280;38103;42.776;23.112;2022-10-24T03:00:24;94639.34;;;7.83;97.16
52105;BME280;38103;42.776;23.112;2022-10-24T03:02:50;94660.03;;;7.93;98.30
52105;BME280;38103;42.776;23.112;2022-10-24T03:05:15;94656.56;;;8.07;97.72
52105;BME280;38103;42.776;23.112;2022-10-24T03:07:41;94652.94;;;8.08;97.83
52105;BME280;38103;42.776;23.112;2022-10-24T03:10:06;94659.44;;;8.25;95.76
52105;BME280;38103;42.776;23.112;2022-10-24T03:12:32;94658.66;;;8.32;94.19
52105;BME280;38103;42.776;23.112;2022-10-24T03:14:57;94647.47;;;8.23;94.64
52105;BME280;38103;42.776;23.112;2022-10-24T03:17:22;94651.91;;;8.02;96.90
52105;BME280;38103;42.776;23.112;2022-10-24T03:19:48;94651.09;;;7.94;97.84
52105;BME280;38103;42.776;23.112;2022-10-24T03:22:13;94648.88;;;7.91;97.59
52105;BME280;38103;42.776;23.112;2022-10-24T03:24:39;94643.78;;;7.76;98.90
52105;BME280;38103;42.776;23.112;2022-10-24T03:27:04;94648.91;;;7.98;97.79
52105;BME280;38103;42.776;23.112;2022-10-24T03:29:30;94660.84;;;8.14;96.23
52105;BME280;38103;42.776;23.112;2022-10-24T03:31:55;94656.22;;;8.16;95.51
52105;BME280;38103;42.776;23.112;2022-10-24T03:34:20;94657.41;;;8.07;96.32
52105;BME280;38103;42.776;23.112;2022-10-24T03:36:46;94659.06;;;8.22;94.69
52105;BME280;38103;42.776;23.112;2022-10-24T03:39:11;94572.09;;;7.74;93.48
52105;BME280;38103;42.776;23.112;2022-10-24T03:41:37;94657.03;;;8.24;93.91
52105;BME280;38103;42.776;23.112;2022-10-24T03:44:02;94657.81;;;8.31;94.40
52105;BME280;38103;42.776;23.112;2022-10-24T03:46:27;94645.88;;;8.08;96.16
52105;BME280;38103;42.776;23.112;2022-10-24T03:48:53;94657.03;;;8.24;93.66
52105;BME280;38103;42.776;23.112;2022-10-24T03:51:18;94657.41;;;8.21;94.11
52105;BME280;38103;42.776;23.112;2022-10-24T03:53:43;94656.78;;;8.05;95.38
52105;BME280;38103;42.776;23.112;2022-10-24T03:56:09;94652.13;;;8.07;94.74
52105;BME280;38103;42.776;23.112;2022-10-24T03:58:34;94651.28;;;7.86;94.93
52105;BME280;38103;42.776;23.112;2022-10-24T04:01:00;94654.88;;;7.58;96.49
52105;BME280;38103;42.776;23.112;2022-10-24T04:03:26;94654.09;;;7.64;96.49
52105;BME280;38103;42.776;23.112;2022-10-24T04:05:52;94647.56;;;7.46;97.40
52105;BME280;38103;42.776;23.112;2022-10-24T04:08:17;94636.97;;;7.33;98.29
52105;BME280;38103;42.776;23.112;2022-10-24T04:10:43;94652.59;;;7.48;97.79
52105;BME280;38103;42.776;23.112;2022-10-24T04:13:09;94648.22;;;7.62;96.47
52105;BME280;38103;42.776;23.112;2022-10-24T04:15:35;94651.66;;;7.69;96.07
52105;BME280;38103;42.776;23.112;2022-10-24T04:18:01;94646.72;;;7.39;98.34
52105;BME280;38103;42.776;23.112;2022-10-24T04:20:26;94551.78;;;6.71;100.00
52105;BME280;38103;42.776;23.112;2022-10-24T04:22:52;94647.78;;;7.52;100.00
52105;BME280;38103;42.776;23.112;2022-10-24T04:25:18;94650.41;;;7.52;100.00
52105;BME280;38103;42.776;23.112;2022-10-24T04:27:43;94647.66;;;7.24;100.00
52105;BME280;38103;42.776;23.112;2022-10-24T04:30:11;94649.50;;;7.24;100.00
52105;BME280;38103;42.776;23.112;2022-10-24T04:32:37;94644.66;;;7.28;100.00
52105;BME280;38103;42.776;23.112;2022-10-24T04:35:04;94656.41;;;7.32;100.00
52105;BME280;38103;42.776;23.112;2022-10-24T04:37:29;94649.91;;;7.28;100.00
52105;BME280;38103;42.776;23.112;2022-10-24T04:39:55;94655.97;;;7.21;100.00
52105;BME280;38103;42.776;23.112;2022-10-24T04:42:21;94631.19;;;7.09;100.00
52105;BME280;38103;42.776;23.112;2022-10-24T04:44:47;94650.19;;;7.46;100.00
52105;BME280;38103;42.776;23.112;2022-10-24T04:47:12;94649.97;;;7.48;100.00
52105;BME280;38103;42.776;23.112;2022-10-24T04:49:38;94651.94;;;7.25;100.00
52105;BME280;38103;42.776;23.112;2022-10-24T04:52:03;94576.56;;;6.97;100.00
52105;BME280;38103;42.776;23.112;2022-10-24T04:54:29;94579.81;;;6.99;100.00
52105;BME280;38103;42.776;23.112;2022-10-24T04:56:54;94650.97;;;7.40;100.00
52105;BME280;38103;42.776;23.112;2022-10-24T04:59:20;94655.22;;;7.41;100.00
52105;BME280;38103;42.776;23.112;2022-10-24T05:01:45;94630.66;;;7.20;100.00
52105;BME280;38103;42.776;23.112;2022-10-24T05:04:10;94662.53;;;7.53;100.00
52105;BME280;38103;42.776;23.112;2022-10-24T05:06:37;94673.34;;;7.71;99.69
52105;BME280;38103;42.776;23.112;2022-10-24T05:09:02;94671.94;;;7.82;98.86
52105;BME280;38103;42.776;23.112;2022-10-24T05:11:27;94666.91;;;7.88;98.93
52105;BME280;38103;42.776;23.112;2022-10-24T05:13:53;94609.13;;;7.52;99.24
52105;BME280;38103;42.776;23.112;2022-10-24T05:16:18;94666.50;;;7.91;99.73
52105;BME280;38103;42.776;23.112;2022-10-24T05:18:44;94657.59;;;7.99;99.75
52105;BME280;38103;42.776;23.112;2022-10-24T05:21:09;94668.31;;;7.90;100.00
52105;BME280;38103;42.776;23.112;2022-10-24T05:23:34;94663.06;;;7.97;100.00
52105;BME280;38103;42.776;23.112;2022-10-24T05:26:00;94657.41;;;8.00;100.00
52105;BME280;38103;42.776;23.112;2022-10-24T05:28:25;94671.16;;;8.09;100.00
52105;BME280;38103;42.776;23.112;2022-10-24T05:30:50;94672.81;;;8.10;100.00
52105;BME280;38103;42.776;23.112;2022-10-24T05:33:16;94679.31;;;8.28;100.00
52105;BME280;38103;42.776;23.112;2022-10-24T05:35:41;94676.09;;;8.67;100.00
52105;BME280;38103;42.776;23.112;2022-10-24T05:38:07;94589.31;;;8.18;99.15
52105;BME280;38103;42.776;23.112;2022-10-24T05:40:32;94671.97;;;9.12;97.90
52105;BME280;38103;42.776;23.112;2022-10-24T05:42:58;94676.72;;;9.42;97.01
52105;BME280;38103;42.776;23.112;2022-10-24T05:45:23;94679.88;;;9.71;95.69
52105;BME280;38103;42.776;23.112;2022-10-24T05:47:48;94687.03;;;9.97;94.00
52105;BME280;38103;42.776;23.112;2022-10-24T05:50:14;94687.56;;;10.12;91.73
52105;BME280;38103;42.776;23.112;2022-10-24T05:52:39;94695.38;;;10.26;90.40
52105;BME280;38103;42.776;23.112;2022-10-24T05:55:07;94695.31;;;10.39;89.29
52105;BME280;38103;42.776;23.112;2022-10-24T05:57:33;94688.06;;;10.60;88.72
52105;BME280;38103;42.776;23.112;2022-10-24T05:59:59;94698.72;;;10.72;89.23
52105;BME280;38103;42.776;23.112;2022-10-24T06:02:25;94696.53;;;10.95;89.35
52105;BME280;38103;42.776;23.112;2022-10-24T06:04:51;94688.72;;;11.19;88.80
52105;BME280;38103;42.776;23.112;2022-10-24T06:07:19;94686.53;;;11.54;87.86
52105;BME280;38103;42.776;23.112;2022-10-24T06:09:44;94685.00;;;11.95;84.82
52105;BME280;38103;42.776;23.112;2022-10-24T06:12:10;94693.81;;;12.08;82.08
52105;BME280;38103;42.776;23.112;2022-10-24T06:14:36;94694.69;;;12.21;81.49
52105;BME280;38103;42.776;23.112;2022-10-24T06:17:03;94689.31;;;12.39;81.55
52105;BME280;38103;42.776;23.112;2022-10-24T06:19:30;94690.16;;;12.76;81.12
52105;BME280;38103;42.776;23.112;2022-10-24T06:21:56;94682.63;;;13.09;79.96
52105;BME280;38103;42.776;23.112;2022-10-24T06:24:22;94684.34;;;13.39;78.27
52105;BME280;38103;42.776;23.112;2022-10-24T06:26:48;94620.69;;;13.03;76.88
52105;BME280;38103;42.776;23.112;2022-10-24T06:29:14;94697.03;;;13.61;76.68
52105;BME280;38103;42.776;23.112;2022-10-24T06:31:39;94702.78;;;13.70;76.98
52105;BME280;38103;42.776;23.112;2022-10-24T06:34:04;94704.47;;;13.89;76.19
52105;BME280;38103;42.776;23.112;2022-10-24T06:36:30;94701.59;;;14.07;74.77
52105;BME280;38103;42.776;23.112;2022-10-24T06:38:55;94708.59;;;14.26;73.91
52105;BME280;38103;42.776;23.112;2022-10-24T06:41:22;94673.66;;;13.76;74.99
52105;BME280;38103;42.776;23.112;2022-10-24T06:43:47;94711.50;;;14.24;74.84
52105;BME280;38103;42.776;23.112;2022-10-24T06:46:15;94716.47;;;14.21;74.09
52105;BME280;38103;42.776;23.112;2022-10-24T06:48:40;94698.44;;;13.93;74.25
52105;BME280;38103;42.776;23.112;2022-10-24T06:51:06;94701.16;;;14.28;73.12
52105;BME280;38103;42.776;23.112;2022-10-24T06:53:32;94681.75;;;13.81;74.59
52105;BME280;38103;42.776;23.112;2022-10-24T06:56:02;94706.38;;;14.52;74.18
52105;BME280;38103;42.776;23.112;2022-10-24T06:58:32;94669.16;;;14.87;71.74
52105;BME280;38103;42.776;23.112;2022-10-24T07:00:58;94711.25;;;15.69;66.30
52105;BME280;38103;42.776;23.112;2022-10-24T07:03:24;94714.66;;;16.10;62.75
52105;BME280;38103;42.776;23.112;2022-10-24T07:05:49;94674.00;;;16.25;61.38
52105;BME280;38103;42.776;23.112;2022-10-24T07:08:14;94708.06;;;16.78;59.91
52105;BME280;38103;42.776;23.112;2022-10-24T07:10:40;94714.56;;;16.88;60.02
52105;BME280;38103;42.776;23.112;2022-10-24T07:13:05;94664.34;;;16.84;59.09
52105;BME280;38103;42.776;23.112;2022-10-24T07:15:30;94689.22;;;17.28;58.38
52105;BME280;38103;42.776;23.112;2022-10-24T07:17:56;94712.41;;;17.76;56.73
52105;BME280;38103;42.776;23.112;2022-10-24T07:20:21;94705.50;;;17.91;56.25
52105;BME280;38103;42.776;23.112;2022-10-24T07:22:47;94708.63;;;17.62;56.16
52105;BME280;38103;42.776;23.112;2022-10-24T07:25:12;94704.38;;;17.17;57.25
52105;BME280;38103;42.776;23.112;2022-10-24T07:27:38;94714.00;;;16.85;58.66
52105;BME280;38103;42.776;23.112;2022-10-24T07:30:05;94711.03;;;16.21;60.93
52105;BME280;38103;42.776;23.112;2022-10-24T07:32:32;94655.03;;;15.98;60.96
52105;BME280;38103;42.776;23.112;2022-10-24T07:34:57;94717.56;;;16.63;60.54
52105;BME280;38103;42.776;23.112;2022-10-24T07:37:23;94711.91;;;16.27;60.78
52105;BME280;38103;42.776;23.112;2022-10-24T07:39:48;94712.28;;;16.13;61.81
52105;BME280;38103;42.776;23.112;2022-10-24T07:42:14;94710.75;;;16.45;60.34
52105;BME280;38103;42.776;23.112;2022-10-24T07:44:40;94708.47;;;16.31;59.74
52105;BME280;38103;42.776;23.112;2022-10-24T07:47:05;94704.59;;;16.45;59.74
52105;BME280;38103;42.776;23.112;2022-10-24T07:49:33;94712.25;;;16.36;59.31
52105;BME280;38103;42.776;23.112;2022-10-24T07:51:59;94708.22;;;16.33;59.61
52105;BME280;38103;42.776;23.112;2022-10-24T07:54:24;94687.19;;;16.09;61.03
52105;BME280;38103;42.776;23.112;2022-10-24T07:56:51;94708.72;;;16.30;59.82
52105;BME280;38103;42.776;23.112;2022-10-24T07:59:16;94698.59;;;16.32;59.91
52105;BME280;38103;42.776;23.112;2022-10-24T08:01:42;94704.59;;;16.45;59.79
52105;BME280;38103;42.776;23.112;2022-10-24T08:04:08;94703.53;;;16.79;58.63
52105;BME280;38103;42.776;23.112;2022-10-24T08:06:34;94630.84;;;16.33;58.03
52105;BME280;38103;42.776;23.112;2022-10-24T08:08:59;94706.03;;;16.91;58.22
52105;BME280;38103;42.776;23.112;2022-10-24T08:11:26;94695.88;;;16.88;57.76
52105;BME280;38103;42.776;23.112;2022-10-24T08:13:53;94690.03;;;16.96;57.53
52105;BME280;38103;42.776;23.112;2022-10-24T08:16:20;94687.38;;;16.96;57.44
52105;BME280;38103;42.776;23.112;2022-10-24T08:18:47;94689.09;;;17.13;57.87
52105;BME280;38103;42.776;23.112;2022-10-24T08:21:14;94686.69;;;17.60;56.58
52105;BME280;38103;42.776;23.112;2022-10-24T08:23:42;94686.25;;;17.89;55.75
52105;BME280;38103;42.776;23.112;2022-10-24T08:26:10;94681.47;;;18.07;55.85
52105;BME280;38103;42.776;23.112;2022-10-24T08:28:36;94634.19;;;17.38;54.83
52105;BME280;38103;42.776;23.112;2022-10-24T08:31:07;94685.09;;;17.64;55.35
52105;BME280;38103;42.776;23.112;2022-10-24T08:33:34;94595.22;;;17.52;54.84
52105;BME280;38103;42.776;23.112;2022-10-24T08:36:03;94608.16;;;17.97;53.98
52105;BME280;38103;42.776;23.112;2022-10-24T08:38:29;94684.16;;;18.12;54.54
52105;BME280;38103;42.776;23.112;2022-10-24T08:40:55;94672.47;;;18.29;54.35
52105;BME280;38103;42.776;23.112;2022-10-24T08:43:22;94682.09;;;18.46;53.90
52105;BME280;38103;42.776;23.112;2022-10-24T08:48:36;94674.06;;;18.82;52.58
52105;BME280;38103;42.776;23.112;2022-10-24T08:53:49;94670.34;;;18.83;53.72
52105;BME280;38103;42.776;23.112;2022-10-24T08:56:28;94670.88;;;18.91;51.82
52105;BME280;38103;42.776;23.112;2022-10-24T08:58:56;94670.88;;;18.64;52.61
52105;BME280;38103;42.776;23.112;2022-10-24T09:01:34;94664.97;;;19.04;52.40
52105;BME280;38103;42.776;23.112;2022-10-24T09:04:08;94620.97;;;19.10;51.73
52105;BME280;38103;42.776;23.112;2022-10-24T09:06:35;94665.84;;;19.71;50.94
52105;BME280;38103;42.776;23.112;2022-10-24T09:09:04;94662.16;;;19.51;51.14
52105;BME280;38103;42.776;23.112;2022-10-24T09:11:49;94669.19;;;19.37;51.59
52105;BME280;38103;42.776;23.112;2022-10-24T09:14:16;94663.84;;;19.31;51.50
52105;BME280;38103;42.776;23.112;2022-10-24T09:16:44;94641.09;;;18.97;53.18
52105;BME280;38103;42.776;23.112;2022-10-24T09:19:16;94662.75;;;19.38;53.16
52105;BME280;38103;42.776;23.112;2022-10-24T09:21:43;94635.41;;;19.30;51.25
52105;BME280;38103;42.776;23.112;2022-10-24T09:26:59;94652.53;;;19.45;51.11
52105;BME280;38103;42.776;23.112;2022-10-24T09:29:30;94652.03;;;19.43;51.82
52105;BME280;38103;42.776;23.112;2022-10-24T09:31:56;94646.63;;;19.48;51.64
52105;BME280;38103;42.776;23.112;2022-10-24T09:34:22;94584.75;;;19.29;50.92
52105;BME280;38103;42.776;23.112;2022-10-24T09:36:47;94645.19;;;19.72;51.08
52105;BME280;38103;42.776;23.112;2022-10-24T09:39:27;94643.88;;;19.64;50.13
52105;BME280;38103;42.776;23.112;2022-10-24T09:41:53;94563.63;;;19.12;50.77
52105;BME280;38103;42.776;23.112;2022-10-24T09:44:36;94639.13;;;19.50;51.35
52105;BME280;38103;42.776;23.112;2022-10-24T09:47:04;94635.34;;;19.51;51.22
52105;BME280;38103;42.776;23.112;2022-10-24T09:49:36;94635.84;;;19.59;52.15
52105;BME280;38103;42.776;23.112;2022-10-24T09:52:24;94542.22;;;19.06;52.06
52105;BME280;38103;42.776;23.112;2022-10-24T09:57:41;94579.50;;;18.87;52.43
52105;BME280;38103;42.776;23.112;2022-10-24T10:03:00;94619.88;;;19.38;52.25
52105;BME280;38103;42.776;23.112;2022-10-24T10:05:29;94626.00;;;19.38;52.00
52105;BME280;38103;42.776;23.112;2022-10-24T10:08:09;94575.34;;;19.37;51.57
52105;BME280;38103;42.776;23.112;2022-10-24T10:10:36;94616.69;;;19.86;51.46
52105;BME280;38103;42.776;23.112;2022-10-24T10:13:03;94618.63;;;19.70;51.20
52105;BME280;38103;42.776;23.112;2022-10-24T10:15:43;94616.50;;;19.67;51.81
52105;BME280;38103;42.776;23.112;2022-10-24T10:18:28;94612.22;;;19.71;50.75
52105;BME280;38103;42.776;23.112;2022-10-24T10:21:02;94599.84;;;19.75;51.17
52105;BME280;38103;42.776;23.112;2022-10-24T10:23:35;94608.97;;;19.69;51.43
52105;BME280;38103;42.776;23.112;2022-10-24T10:28:46;94604.50;;;20.05;50.96
52105;BME280;38103;42.776;23.112;2022-10-24T10:31:17;94594.69;;;20.30;51.10
52105;BME280;38103;42.776;23.112;2022-10-24T10:36:23;94586.59;;;20.65;48.86
52105;BME280;38103;42.776;23.112;2022-10-24T10:41:52;94582.97;;;20.50;49.44
52105;BME280;38103;42.776;23.112;2022-10-24T10:47:14;94579.34;;;20.65;48.18
52105;BME280;38103;42.776;23.112;2022-10-24T10:49:46;94572.25;;;20.75;47.82
52105;BME280;38103;42.776;23.112;2022-10-24T10:52:47;94570.75;;;20.63;48.02
52105;BME280;38103;42.776;23.112;2022-10-24T11:01:14;94561.78;;;21.28;48.04
52105;BME280;38103;42.776;23.112;2022-10-24T11:03:57;94566.56;;;21.06;47.06
52105;BME280;38103;42.776;23.112;2022-10-24T11:06:50;94556.38;;;21.28;47.57
52105;BME280;38103;42.776;23.112;2022-10-24T11:12:00;94558.78;;;21.29;45.98
52105;BME280;38103;42.776;23.112;2022-10-24T11:14:34;94559.72;;;21.19;46.37
52105;BME280;38103;42.776;23.112;2022-10-24T11:17:07;94544.34;;;21.44;47.42
52105;BME280;38103;42.776;23.112;2022-10-24T11:22:37;94541.81;;;21.53;47.48
52105;BME280;38103;42.776;23.112;2022-10-24T11:25:15;94527.91;;;21.46;46.22
52105;BME280;38103;42.776;23.112;2022-10-24T11:27:50;94533.31;;;21.46;45.95
52105;BME280;38103;42.776;23.112;2022-10-24T11:30:28;94525.88;;;21.57;46.10
52105;BME280;38103;42.776;23.112;2022-10-24T11:33:01;94533.16;;;21.76;44.73
52105;BME280;38103;42.776;23.112;2022-10-24T11:35:29;94521.44;;;21.86;45.44
52105;BME280;38103;42.776;23.112;2022-10-24T11:38:16;94520.13;;;22.03;46.75
52105;BME280;38103;42.776;23.112;2022-10-24T11:40:44;94482.69;;;21.87;44.79
52105;BME280;38103;42.776;23.112;2022-10-24T11:43:34;94516.59;;;22.21;43.18
52105;BME280;38103;42.776;23.112;2022-10-24T11:46:21;94514.59;;;22.13;43.62
52105;BME280;38103;42.776;23.112;2022-10-24T11:48:55;94518.09;;;21.94;43.34
52105;BME280;38103;42.776;23.112;2022-10-24T11:51:39;94473.13;;;21.75;44.27
52105;BME280;38103;42.776;23.112;2022-10-24T11:54:15;94509.81;;;22.24;44.89
52105;BME280;38103;42.776;23.112;2022-10-24T11:56:57;94517.19;;;22.18;43.42
52105;BME280;38103;42.776;23.112;2022-10-24T11:59:23;94505.63;;;22.18;43.45
52105;BME280;38103;42.776;23.112;2022-10-24T12:18:49;94460.56;;;22.24;42.36
52105;BME280;38103;42.776;23.112;2022-10-24T12:21:22;94480.34;;;22.61;43.49
52105;BME280;38103;42.776;23.112;2022-10-24T12:23:57;94440.03;;;22.56;43.38
52105;BME280;38103;42.776;23.112;2022-10-24T12:26:28;94483.38;;;23.02;42.30
52105;BME280;38103;42.776;23.112;2022-10-24T12:28:59;94479.00;;;22.78;41.65
52105;BME280;38103;42.776;23.112;2022-10-24T12:31:35;94470.41;;;22.76;42.22
52105;BME280;38103;42.776;23.112;2022-10-24T12:37:03;94465.41;;;22.83;42.39
52105;BME280;38103;42.776;23.112;2022-10-24T12:39:32;94466.69;;;23.00;41.74
52105;BME280;38103;42.776;23.112;2022-10-24T12:41:57;94461.97;;;23.20;41.46
52105;BME280;38103;42.776;23.112;2022-10-24T12:44:36;94461.34;;;23.23;40.38
52105;BME280;38103;42.776;23.112;2022-10-24T12:49:47;94463.84;;;23.33;40.43
52105;BME280;38103;42.776;23.112;2022-10-24T12:57:54;94447.41;;;23.44;40.50
52105;BME280;38103;42.776;23.112;2022-10-24T13:00:24;94454.91;;;23.47;40.78
52105;BME280;38103;42.776;23.112;2022-10-24T13:03:04;94451.00;;;23.53;40.54
52105;BME280;38103;42.776;23.112;2022-10-24T13:06:06;94444.28;;;23.65;40.84
52105;BME280;38103;42.776;23.112;2022-10-24T13:09:02;94428.63;;;23.16;40.14
52105;BME280;38103;42.776;23.112;2022-10-24T13:14:29;94450.56;;;23.23;40.38
52105;BME280;38103;42.776;23.112;2022-10-24T13:19:24;94440.16;;;23.30;40.21
52105;BME280;38103;42.776;23.112;2022-10-24T13:21:51;94445.31;;;23.41;39.95
52105;BME280;38103;42.776;23.112;2022-10-24T13:26:48;94414.03;;;23.54;40.42
52105;BME280;38103;42.776;23.112;2022-10-24T13:39:53;94435.81;;;23.81;40.81
52105;BME280;38103;42.776;23.112;2022-10-24T13:42:26;94433.47;;;23.65;39.41
52105;BME280;38103;42.776;23.112;2022-10-24T13:45:02;94430.31;;;23.63;39.42
52105;BME280;38103;42.776;23.112;2022-10-24T13:47:33;94431.84;;;23.55;39.39
52105;BME280;38103;42.776;23.112;2022-10-24T13:50:13;94422.53;;;23.47;39.54
52105;BME280;38103;42.776;23.112;2022-10-24T13:55:21;94432.19;;;23.25;40.25
52105;BME280;38103;42.776;23.112;2022-10-24T13:58:00;94414.31;;;23.15;40.62
52105;BME280;38103;42.776;23.112;2022-10-24T14:00:35;94405.06;;;23.07;40.77
52105;BME280;38103;42.776;23.112;2022-10-24T14:03:17;94427.91;;;23.10;41.76
52105;BME280;38103;42.776;23.112;2022-10-24T14:05:51;94431.16;;;22.98;41.65
52105;BME280;38103;42.776;23.112;2022-10-24T14:08:31;94426.47;;;22.90;41.83
52105;BME280;38103;42.776;23.112;2022-10-24T14:11:00;94421.78;;;22.81;41.97
52105;BME280;38103;42.776;23.112;2022-10-24T14:13:29;94424.88;;;22.74;42.22
52105;BME280;38103;42.776;23.112;2022-10-24T14:16:05;94435.44;;;22.71;42.66
52105;BME280;38103;42.776;23.112;2022-10-24T14:18:32;94428.25;;;22.52;42.56
52105;BME280;38103;42.776;23.112;2022-10-24T14:21:00;94428.16;;;22.43;43.46
52105;BME280;38103;42.776;23.112;2022-10-24T14:23:28;94428.66;;;22.31;42.53
52105;BME280;38103;42.776;23.112;2022-10-24T14:26:13;94429.00;;;22.10;42.94
52105;BME280;38103;42.776;23.112;2022-10-24T14:28:45;94407.25;;;21.92;43.77
52105;BME280;38103;42.776;23.112;2022-10-24T14:33:49;94420.22;;;21.90;44.44
52105;BME280;38103;42.776;23.112;2022-10-24T14:36:16;94427.31;;;21.81;44.55
52105;BME280;38103;42.776;23.112;2022-10-24T14:38:46;94400.72;;;21.60;45.10
52105;BME280;38103;42.776;23.112;2022-10-24T14:41:12;94418.81;;;21.73;46.45
52105;BME280;38103;42.776;23.112;2022-10-24T14:43:39;94421.69;;;21.63;45.90